createdAt,value
2022-09-10T00:00:08.982Z,2.63
2022-09-10T00:02:40.728Z,2.47
2022-09-10T00:05:13.044Z,4.27
2022-09-10T00:07:44.717Z,2.27
2022-09-10T00:10:18.544Z,3.03
2022-09-10T00:12:51.154Z,4.03
2022-09-10T00:15:22.830Z,3.50
2022-09-10T00:17:54.196Z,3.43
2022-09-10T00:20:26.968Z,2.93
2022-09-10T00:22:58.310Z,2.80
2022-09-10T00:25:32.229Z,4.60
2022-09-10T00:28:03.579Z,4.93
2022-09-10T00:30:40.961Z,3.37
2022-09-10T00:33:14.114Z,7.10
2022-09-10T00:35:46.597Z,2.80
2022-09-10T00:38:18.477Z,2.20
2022-09-10T00:40:49.867Z,6.03
2022-09-10T00:43:22.176Z,2.57
2022-09-10T00:45:55.335Z,2.10
2022-09-10T00:48:32.257Z,5.43
2022-09-10T00:51:05.931Z,2.03
2022-09-10T00:53:37.459Z,3.60
2022-09-10T00:56:09.049Z,3.87
2022-09-10T00:58:41.360Z,2.77
2022-09-10T01:01:13.469Z,4.50
2022-09-10T01:03:46.200Z,5.37
2022-09-10T01:06:18.373Z,2.37
2022-09-10T01:08:49.721Z,4.23
2022-09-10T01:11:37.773Z,2.73
2022-09-10T01:14:47.257Z,1.93
2022-09-10T01:17:37.054Z,2.43
2022-09-10T01:20:35.077Z,2.93
2022-09-10T01:23:27.999Z,3.73
2022-09-10T01:26:25.013Z,2.50
2022-09-10T01:31:51.765Z,1.33
2022-09-10T01:34:51.043Z,3.00
2022-09-10T01:37:29.372Z,2.87
2022-09-10T01:40:03.154Z,3.17
2022-09-10T01:42:38.387Z,3.53
2022-09-10T01:45:13.992Z,1.88
2022-09-10T01:48:19.290Z,3.15
2022-09-10T01:51:08.762Z,2.47
2022-09-10T01:54:18.757Z,2.80
2022-09-10T01:57:04.181Z,2.07
2022-09-10T01:59:44.588Z,2.40
2022-09-10T02:02:23.916Z,1.87
2022-09-10T02:04:57.420Z,3.40
2022-09-10T02:07:32.028Z,2.53
2022-09-10T02:10:06.645Z,2.30
2022-09-10T02:12:39.942Z,3.20
2022-09-10T02:15:12.014Z,1.93
2022-09-10T02:17:46.556Z,1.73
2022-09-10T02:20:19.695Z,2.13
2022-09-10T02:22:56.849Z,3.07
2022-09-10T02:25:33.556Z,2.27
2022-09-10T02:28:06.069Z,2.43
2022-09-10T02:30:37.733Z,2.17
2022-09-10T02:33:09.077Z,4.13
2022-09-10T02:35:40.383Z,5.83
2022-09-10T02:38:11.733Z,7.40
2022-09-10T02:40:43.222Z,4.63
2022-09-10T02:43:15.544Z,3.13
2022-09-10T02:45:46.983Z,2.20
2022-09-10T02:48:18.316Z,2.23
2022-09-10T02:50:49.679Z,5.73
2022-09-10T02:53:21.285Z,2.33
2022-09-10T02:55:52.856Z,3.00
2022-09-10T02:58:24.286Z,5.10
2022-09-10T03:01:05.911Z,3.07
2022-09-10T03:03:37.678Z,3.77
2022-09-10T03:06:09.638Z,6.43
2022-09-10T03:08:41.015Z,5.13
2022-09-10T03:11:15.296Z,3.47
2022-09-10T03:13:46.624Z,8.00
2022-09-10T03:16:19.024Z,4.37
2022-09-10T03:18:51.933Z,3.60
2022-09-10T03:21:25.102Z,3.00
2022-09-10T03:23:57.214Z,5.37
2022-09-10T03:26:28.722Z,2.80
2022-09-10T03:29:00.094Z,4.10
2022-09-10T03:31:32.041Z,5.07
2022-09-10T03:34:04.099Z,4.30
2022-09-10T03:36:35.593Z,3.20
2022-09-10T03:39:06.920Z,3.00
2022-09-10T03:41:38.293Z,4.43
2022-09-10T03:44:10.231Z,5.80
2022-09-10T03:46:41.520Z,3.73
2022-09-10T03:49:12.849Z,3.27
2022-09-10T03:51:44.216Z,5.50
2022-09-10T03:54:15.800Z,4.80
2022-09-10T03:56:47.113Z,4.23
2022-09-10T03:59:18.639Z,4.90
2022-09-10T04:01:50.627Z,5.00
2022-09-10T04:04:22.074Z,3.60
2022-09-10T04:06:53.769Z,4.33
2022-09-10T04:09:25.202Z,3.87
2022-09-10T04:11:56.853Z,3.83
2022-09-10T04:14:28.213Z,4.83
2022-09-10T04:16:59.581Z,4.47
2022-09-10T04:19:30.939Z,5.23
2022-09-10T04:22:03.017Z,6.00
2022-09-10T04:24:34.404Z,5.07
2022-09-10T04:27:06.301Z,6.93
2022-09-10T04:29:38.074Z,4.23
2022-09-10T04:32:09.466Z,5.40
2022-09-10T04:34:41.105Z,3.90
2022-09-10T04:37:16.186Z,3.80
2022-09-10T04:39:51.066Z,5.90
2022-09-10T04:42:22.790Z,6.00
2022-09-10T04:44:54.323Z,6.90
2022-09-10T04:47:25.845Z,9.50
2022-09-10T04:49:57.471Z,7.83
2022-09-10T04:52:28.979Z,6.83
2022-09-10T04:55:00.342Z,3.73
2022-09-10T04:57:31.685Z,5.93
2022-09-10T05:00:07.679Z,5.80
2022-09-10T05:02:39.281Z,5.35
2022-09-10T05:05:10.618Z,7.50
2022-09-10T05:07:42.085Z,5.73
2022-09-10T05:10:15.211Z,6.60
2022-09-10T05:12:48.010Z,7.07
2022-09-10T05:15:19.396Z,8.83
2022-09-10T05:17:51.639Z,5.40
2022-09-10T05:20:23.106Z,5.93
2022-09-10T05:22:54.908Z,7.13
2022-09-10T05:25:27.730Z,4.63
2022-09-10T05:28:01.048Z,5.60
2022-09-10T05:30:32.634Z,5.37
2022-09-10T05:33:04.407Z,8.77
2022-09-10T05:35:35.847Z,5.10
2022-09-10T05:38:08.234Z,11.63
2022-09-10T05:40:42.154Z,7.00
2022-09-10T05:43:13.433Z,6.70
2022-09-10T05:45:44.882Z,7.67
2022-09-10T05:48:16.321Z,8.53
2022-09-10T05:50:47.728Z,8.67
2022-09-10T05:53:19.078Z,5.73
2022-09-10T05:55:50.570Z,11.00
2022-09-10T05:58:21.934Z,5.77
2022-09-10T06:00:58.119Z,6.00
2022-09-10T06:03:29.535Z,8.67
2022-09-10T06:06:00.906Z,8.70
2022-09-10T06:08:32.305Z,9.60
2022-09-10T06:11:05.861Z,12.13
2022-09-10T06:13:39.573Z,6.40
2022-09-10T06:16:11.830Z,6.10
2022-09-10T06:18:44.032Z,5.73
2022-09-10T06:21:18.283Z,8.60
2022-09-10T06:23:53.547Z,8.07
2022-09-10T06:26:25.550Z,7.72
2022-09-10T06:28:56.950Z,12.50
2022-09-10T06:31:28.771Z,13.90
2022-09-10T06:34:01.579Z,6.83
2022-09-10T06:36:33.880Z,11.10
2022-09-10T06:39:07.040Z,7.83
2022-09-10T06:41:39.286Z,10.37
2022-09-10T06:44:10.909Z,9.50
2022-09-10T06:49:36.540Z,7.70
2022-09-10T06:52:08.076Z,7.67
2022-09-10T06:54:39.743Z,8.37
2022-09-10T06:57:11.343Z,11.40
2022-09-10T06:59:43.670Z,10.83
2022-09-10T07:02:15.253Z,8.70
2022-09-10T07:04:46.628Z,8.70
2022-09-10T07:07:17.975Z,11.50
2022-09-10T07:09:49.271Z,9.00
2022-09-10T07:12:21.284Z,10.40
2022-09-10T07:14:52.766Z,10.18
2022-09-10T07:17:24.057Z,11.75
2022-09-10T07:19:55.622Z,6.28
2022-09-10T07:22:26.985Z,10.18
2022-09-10T07:24:59.285Z,7.35
2022-09-10T07:27:30.673Z,9.55
2022-09-10T07:30:02.009Z,8.70
2022-09-10T07:32:33.667Z,10.60
2022-09-10T07:35:07.402Z,7.95
2022-09-10T07:37:39.220Z,9.45
2022-09-10T07:40:10.708Z,9.98
2022-09-10T07:42:44.091Z,9.55
2022-09-10T07:45:16.136Z,10.27
2022-09-10T07:47:48.669Z,9.88
2022-09-10T07:50:20.291Z,10.18
2022-09-10T07:52:52.680Z,7.68
2022-09-10T07:55:24.188Z,10.63
2022-09-10T07:57:59.874Z,8.65
2022-09-10T08:03:03.203Z,11.90
2022-09-10T08:05:37.140Z,10.88
2022-09-10T08:08:10.419Z,12.02
2022-09-10T08:10:42.155Z,10.05
2022-09-10T08:13:13.440Z,12.77
2022-09-10T08:15:45.082Z,9.07
2022-09-10T08:18:17.151Z,13.25
2022-09-10T08:20:54.594Z,12.65
2022-09-10T08:23:25.945Z,17.50
2022-09-10T08:25:58.274Z,14.20
2022-09-10T08:28:29.847Z,11.70
2022-09-10T08:31:07.673Z,12.00
2022-09-10T08:33:40.084Z,14.25
2022-09-10T08:36:13.893Z,10.82
2022-09-10T08:38:46.157Z,13.00
2022-09-10T08:41:49.475Z,12.57
2022-09-10T08:44:34.660Z,14.95
2022-09-10T08:47:25.025Z,11.82
2022-09-10T08:50:24.632Z,8.95
2022-09-10T08:53:23.007Z,11.02
2022-09-10T08:55:58.381Z,10.93
2022-09-10T08:58:45.173Z,15.30
2022-09-10T09:01:43.403Z,15.77
2022-09-10T09:04:34.080Z,11.68
2022-09-10T09:07:14.478Z,11.95
2022-09-10T09:09:51.227Z,9.60
2022-09-10T09:12:58.900Z,14.77
2022-09-10T09:15:39.143Z,11.90
2022-09-10T09:18:20.304Z,10.68
2022-09-10T09:20:56.340Z,12.57
2022-09-10T09:23:48.058Z,13.18
2022-09-10T09:26:36.168Z,12.05
2022-09-10T09:29:18.992Z,8.90
2022-09-10T09:31:57.792Z,11.18
2022-09-10T09:34:39.533Z,14.75
2022-09-10T09:37:17.371Z,13.35
2022-09-10T09:40:07.159Z,12.05
2022-09-10T09:42:53.574Z,15.27
2022-09-10T09:48:13.526Z,13.32
2022-09-10T09:50:51.380Z,10.27
2022-09-10T09:53:27.659Z,12.48
2022-09-10T09:56:01.845Z,10.73
2022-09-10T09:58:35.587Z,12.35
2022-09-10T10:01:10.420Z,13.40
2022-09-10T10:03:54.462Z,9.87
2022-09-10T10:06:45.916Z,15.35
2022-09-10T10:09:22.692Z,10.95
2022-09-10T10:12:05.860Z,9.40
2022-09-10T10:14:44.615Z,8.70
2022-09-10T10:17:32.400Z,11.63
2022-09-10T10:20:07.220Z,10.63
2022-09-10T10:22:48.651Z,9.93
2022-09-10T10:25:41.228Z,11.23
2022-09-10T10:28:22.675Z,8.43
2022-09-10T10:30:59.136Z,11.38
2022-09-10T10:33:33.453Z,7.95
2022-09-10T10:36:18.714Z,9.50
2022-09-10T10:39:02.187Z,15.43
2022-09-10T10:41:41.622Z,9.55
2022-09-10T10:44:32.333Z,9.90
2022-09-10T10:47:27.316Z,10.73
2022-09-10T10:50:19.456Z,10.25
2022-09-10T10:53:13.000Z,9.13
2022-09-10T10:55:53.349Z,8.35
2022-09-10T10:58:54.424Z,11.40
2022-09-10T11:01:30.078Z,7.97
2022-09-10T11:04:27.471Z,6.47
2022-09-10T11:07:18.464Z,11.80
2022-09-10T11:10:29.757Z,10.00
2022-09-10T11:13:13.010Z,7.43
2022-09-10T11:15:52.296Z,4.85
2022-09-10T11:18:46.037Z,5.80
2022-09-10T11:21:29.738Z,7.90
2022-09-10T11:24:19.950Z,9.20
2022-09-10T11:27:05.546Z,5.85
2022-09-10T11:29:45.784Z,6.15
2022-09-10T11:32:27.426Z,6.75
2022-09-10T11:35:15.320Z,6.20
2022-09-10T11:38:22.293Z,6.22
2022-09-10T11:44:10.598Z,5.03
2022-09-10T11:47:06.416Z,4.28
2022-09-10T11:50:16.378Z,5.45
2022-09-10T11:52:47.935Z,4.65
2022-09-10T11:55:19.432Z,6.38
2022-09-10T11:58:11.538Z,7.05
2022-09-10T12:00:58.940Z,6.82
2022-09-10T12:04:05.956Z,7.85
2022-09-10T12:06:52.183Z,9.13
2022-09-10T12:12:18.994Z,6.60
2022-09-10T12:14:50.761Z,10.57
2022-09-10T12:17:36.776Z,12.68
2022-09-10T12:20:34.134Z,12.05
2022-09-10T12:23:06.492Z,11.98
2022-09-10T12:25:38.513Z,12.75
2022-09-10T12:28:41.812Z,18.92
2022-09-10T12:31:15.631Z,26.80
2022-09-10T12:33:46.985Z,14.95
2022-09-10T12:36:27.728Z,30.92
2022-09-10T12:39:22.462Z,16.83
2022-09-10T12:41:55.700Z,17.90
2022-09-10T12:44:42.821Z,80.93
2022-09-10T12:47:17.272Z,17.98
2022-09-10T12:49:53.144Z,11.80
2022-09-10T12:55:40.858Z,12.95
2022-09-10T12:58:43.943Z,11.27
2022-09-10T13:01:40.245Z,14.45
2022-09-10T13:04:34.702Z,14.00
2022-09-10T13:07:21.416Z,11.77
2022-09-10T13:10:00.034Z,10.05
2022-09-10T13:12:35.735Z,12.57
2022-09-10T13:15:16.368Z,12.82
2022-09-10T13:17:47.651Z,14.05
2022-09-10T13:20:31.824Z,16.38
2022-09-10T13:23:09.153Z,11.98
2022-09-10T13:25:51.335Z,12.55
2022-09-10T13:28:28.786Z,18.08
2022-09-10T13:31:04.339Z,12.40
2022-09-10T13:33:52.404Z,13.55
2022-09-10T13:36:48.006Z,12.85
2022-09-10T13:39:44.090Z,12.43
2022-09-10T13:42:49.093Z,12.45
2022-09-10T13:45:30.398Z,11.35
2022-09-10T13:48:15.102Z,13.25
2022-09-10T13:51:05.814Z,15.50
2022-09-10T13:53:43.667Z,14.13
2022-09-10T13:56:27.523Z,14.23
2022-09-10T13:59:03.039Z,12.70
2022-09-10T14:01:53.932Z,12.30
2022-09-10T14:04:31.959Z,14.88
2022-09-10T14:07:22.806Z,11.57
2022-09-10T14:09:59.694Z,10.25
2022-09-10T14:12:34.502Z,9.85
2022-09-10T14:15:07.131Z,10.50
2022-09-10T14:17:45.021Z,10.07
2022-09-10T14:20:27.457Z,11.63
2022-09-10T14:23:02.333Z,9.60
2022-09-10T14:25:36.589Z,12.80
2022-09-10T14:28:27.660Z,12.38
2022-09-10T14:31:22.773Z,13.50
2022-09-10T14:33:55.822Z,10.70
2022-09-10T14:36:27.620Z,9.25
2022-09-10T14:39:06.755Z,12.13
2022-09-10T14:41:38.116Z,12.40
2022-09-10T14:44:20.370Z,12.05
2022-09-10T14:46:58.294Z,9.77
2022-09-10T14:49:34.624Z,13.23
2022-09-10T14:52:07.716Z,10.38
2022-09-10T14:54:39.150Z,14.63
2022-09-10T14:57:14.626Z,16.58
2022-09-10T14:59:46.404Z,109.68
2022-09-10T15:02:26.540Z,32.53
2022-09-10T15:04:57.959Z,25.10
2022-09-10T15:07:29.300Z,22.40
2022-09-10T15:10:01.575Z,18.67
2022-09-10T15:12:33.592Z,11.88
2022-09-10T15:15:05.739Z,13.55
2022-09-10T15:17:37.283Z,14.20
2022-09-10T15:20:17.456Z,14.32
2022-09-10T15:22:49.164Z,11.75
2022-09-10T15:25:33.889Z,10.13
2022-09-10T15:28:10.177Z,11.32
2022-09-10T15:30:41.618Z,15.75
2022-09-10T15:33:14.572Z,10.85
2022-09-10T15:35:47.168Z,11.27
2022-09-10T15:38:21.312Z,13.18
2022-09-10T15:41:05.598Z,14.48
2022-09-10T15:43:39.694Z,12.27
2022-09-10T15:46:13.297Z,12.15
2022-09-10T15:48:47.353Z,10.77
2022-09-10T15:51:21.478Z,8.27
2022-09-10T15:53:53.962Z,6.50
2022-09-10T15:56:28.324Z,5.53
2022-09-10T15:58:59.750Z,6.13
2022-09-10T16:01:32.106Z,5.47
2022-09-10T16:04:04.643Z,6.20
2022-09-10T16:06:39.222Z,4.18
2022-09-10T16:09:12.825Z,6.80
2022-09-10T16:11:44.664Z,7.40
2022-09-10T16:14:16.709Z,6.35
2022-09-10T16:16:50.879Z,5.75
2022-09-10T16:19:23.211Z,3.67
2022-09-10T16:21:54.604Z,5.32
2022-09-10T16:24:25.931Z,4.32
2022-09-10T16:26:57.405Z,4.70
2022-09-10T16:29:28.793Z,3.40
2022-09-10T16:32:00.207Z,5.97
2022-09-10T16:34:31.578Z,3.85
2022-09-10T16:37:03.438Z,3.88
2022-09-10T16:39:34.790Z,2.75
2022-09-10T16:42:06.287Z,5.07
2022-09-10T16:44:37.614Z,4.20
2022-09-10T16:47:09.042Z,3.22
2022-09-10T16:49:40.352Z,2.95
2022-09-10T16:52:12.094Z,5.03
2022-09-10T16:54:45.968Z,10.35
2022-09-10T16:57:17.558Z,28.58
2022-09-10T16:59:49.218Z,16.50
2022-09-10T17:02:20.584Z,92.07
2022-09-10T17:04:52.457Z,56.60
2022-09-10T17:07:23.915Z,76.85
2022-09-10T17:10:00.103Z,32.67
2022-09-10T17:12:32.179Z,22.08
2022-09-10T17:15:03.884Z,10.75
2022-09-10T17:17:35.183Z,8.27
2022-09-10T17:20:07.345Z,4.95
2022-09-10T17:22:38.644Z,4.25
2022-09-10T17:25:10.011Z,6.78
2022-09-10T17:27:41.365Z,3.67
2022-09-10T17:30:12.872Z,5.93
2022-09-10T17:32:44.181Z,32.15
2022-09-10T17:35:15.526Z,6.60
2022-09-10T17:37:47.513Z,18.67
2022-09-10T17:40:20.043Z,238.13
2022-09-10T17:42:51.370Z,302.50
2022-09-10T17:45:22.800Z,92.43
2022-09-10T17:47:54.183Z,30.70
2022-09-10T17:50:25.504Z,22.55
2022-09-10T17:52:57.391Z,11.23
2022-09-10T17:55:33.473Z,13.38
2022-09-10T17:58:05.205Z,12.48
2022-09-10T18:00:40.578Z,12.18
2022-09-10T18:03:12.427Z,11.75
2022-09-10T18:05:45.028Z,9.57
2022-09-10T18:08:16.470Z,7.45
2022-09-10T18:10:48.574Z,6.72
2022-09-10T18:13:20.807Z,4.10
2022-09-10T18:15:52.421Z,4.85
2022-09-10T18:18:23.742Z,6.78
2022-09-10T18:20:56.336Z,5.85
2022-09-10T18:23:27.685Z,5.20
2022-09-10T18:25:59.423Z,6.45
2022-09-10T18:28:30.694Z,4.75
2022-09-10T18:31:03.497Z,9.07
2022-09-10T18:33:40.595Z,6.38
2022-09-10T18:36:17.775Z,5.47
2022-09-10T18:38:49.078Z,7.82
2022-09-10T18:41:25.930Z,10.23
2022-09-10T18:44:00.680Z,8.93
2022-09-10T18:46:33.037Z,6.05
2022-09-10T18:49:05.159Z,9.82
2022-09-10T18:51:36.435Z,7.88
2022-09-10T18:54:09.027Z,6.43
2022-09-10T18:56:41.512Z,7.85
2022-09-10T18:59:15.486Z,8.05
2022-09-10T19:01:48.377Z,7.18
2022-09-10T19:04:23.667Z,6.00
2022-09-10T19:06:56.312Z,5.88
2022-09-10T19:09:30.175Z,6.03
2022-09-10T19:12:02.365Z,10.43
2022-09-10T19:14:35.661Z,25.25
2022-09-10T19:17:07.001Z,19.23
2022-09-10T19:19:38.424Z,36.22
2022-09-10T19:22:10.583Z,11.00
2022-09-10T19:24:54.579Z,10.60
2022-09-10T19:27:26.689Z,14.40
2022-09-10T19:29:58.093Z,14.63
2022-09-10T19:32:29.545Z,8.02
2022-09-10T19:35:01.195Z,12.90
2022-09-10T19:37:32.519Z,9.15
2022-09-10T19:40:04.237Z,9.13
2022-09-10T19:42:35.582Z,14.60
2022-09-10T19:45:10.179Z,9.13
2022-09-10T19:47:42.905Z,10.52
2022-09-10T19:50:14.390Z,9.55
2022-09-10T19:52:45.795Z,6.55
2022-09-10T19:55:18.044Z,8.93
2022-09-10T19:57:50.278Z,9.23
2022-09-10T20:00:43.418Z,12.65
2022-09-10T20:03:14.117Z,8.90
2022-09-10T20:05:46.151Z,64.17
2022-09-10T20:08:17.450Z,285.67
2022-09-10T20:10:51.833Z,95.47
2022-09-10T20:13:23.369Z,40.13
2022-09-10T20:15:56.082Z,17.67
2022-09-10T20:18:28.544Z,9.73
2022-09-10T20:21:13.994Z,13.27
2022-09-10T20:23:47.843Z,10.73
2022-09-10T20:26:31.621Z,7.70
2022-09-10T20:29:06.090Z,9.37
2022-09-10T20:31:40.921Z,7.87
2022-09-10T20:34:15.334Z,8.77
2022-09-10T20:36:48.146Z,60.17
2022-09-10T20:39:21.891Z,14.10
2022-09-10T20:41:53.582Z,76.27
2022-09-10T20:44:25.865Z,17.07
2022-09-10T20:46:57.220Z,11.27
2022-09-10T20:49:28.703Z,12.73
2022-09-10T20:52:00.077Z,12.30
2022-09-10T20:54:31.392Z,12.47
2022-09-10T20:57:02.936Z,21.73
2022-09-10T20:59:34.532Z,17.67
2022-09-10T21:02:06.761Z,14.80
2022-09-10T21:04:39.517Z,16.90
2022-09-10T21:07:10.844Z,11.87
2022-09-10T21:09:42.148Z,11.60
2022-09-10T21:12:13.537Z,8.90
2022-09-10T21:14:44.890Z,10.97
2022-09-10T21:17:16.235Z,11.07
2022-09-10T21:19:47.856Z,15.93
2022-09-10T21:22:20.210Z,16.47
2022-09-10T21:24:51.662Z,13.13
2022-09-10T21:27:23.984Z,11.30
2022-09-10T21:29:55.345Z,13.07
2022-09-10T21:32:26.671Z,12.83
2022-09-10T21:34:59.267Z,12.33
2022-09-10T21:37:30.808Z,63.03
2022-09-10T21:40:03.003Z,11.53
2022-09-10T21:42:34.338Z,7.87
2022-09-10T21:45:07.000Z,18.73
2022-09-10T21:47:38.777Z,20.77
2022-09-10T21:50:10.189Z,16.03
2022-09-10T21:52:41.538Z,40.67
2022-09-10T21:55:12.935Z,74.10
2022-09-10T21:57:44.349Z,45.67
2022-09-10T22:00:16.165Z,90.40
2022-09-10T22:02:49.464Z,81.03
2022-09-10T22:05:21.343Z,100.93
2022-09-10T22:07:52.959Z,19.43
2022-09-10T22:10:24.271Z,12.03
2022-09-10T22:12:56.761Z,12.97
2022-09-10T22:15:28.232Z,21.50
2022-09-10T22:17:59.880Z,22.03
2022-09-10T22:20:33.474Z,22.40
2022-09-10T22:23:04.860Z,33.87
2022-09-10T22:25:36.228Z,26.03
2022-09-10T22:28:07.569Z,19.07
2022-09-10T22:30:38.833Z,21.40
2022-09-10T22:33:10.252Z,16.00
2022-09-10T22:35:41.666Z,21.97
2022-09-10T22:38:16.852Z,32.57
2022-09-10T22:40:51.322Z,63.23
2022-09-10T22:43:22.652Z,59.60
2022-09-10T22:45:54.084Z,53.67
2022-09-10T22:48:25.474Z,61.17
2022-09-10T22:50:56.842Z,64.97
2022-09-10T22:53:28.266Z,63.97
2022-09-10T22:56:00.940Z,55.33
2022-09-10T22:58:33.163Z,58.90
2022-09-10T23:01:15.947Z,59.90
2022-09-10T23:03:48.515Z,63.83
2022-09-10T23:06:22.620Z,72.97
2022-09-10T23:08:56.817Z,58.23
2022-09-10T23:11:30.453Z,48.97
2022-09-10T23:14:05.543Z,48.37
2022-09-10T23:16:39.710Z,52.63
2022-09-10T23:19:13.608Z,56.03
2022-09-10T23:21:47.376Z,49.50
2022-09-10T23:24:21.848Z,54.83
2022-09-10T23:26:53.768Z,51.43
2022-09-10T23:29:25.287Z,49.30
2022-09-10T23:31:56.601Z,48.57
2022-09-10T23:34:28.002Z,55.07
2022-09-10T23:36:59.361Z,51.43
2022-09-10T23:39:30.695Z,53.40
2022-09-10T23:42:02.243Z,55.07
2022-09-10T23:44:35.017Z,40.07
2022-09-10T23:47:06.931Z,46.17
2022-09-10T23:49:38.340Z,45.93
2022-09-10T23:52:09.860Z,42.17
2022-09-10T23:54:41.676Z,49.47
2022-09-10T23:57:13.156Z,45.03
2022-09-10T23:59:44.740Z,39.30
